sensor_id;sensor_type;location;lat;lon;timestamp;temperature;humidity
33414;DHT22;60055;41.884;12.534;2022-07-23T00:00:53;30.00;99.90
33414;DHT22;60055;41.884;12.534;2022-07-23T00:03:19;30.00;99.90
33414;DHT22;60055;41.884;12.534;2022-07-23T00:05:44;30.00;99.90
33414;DHT22;60055;41.884;12.534;2022-07-23T00:08:10;30.00;99.90
33414;DHT22;60055;41.884;12.534;2022-07-23T00:10:36;30.00;99.90
33414;DHT22;60055;41.884;12.534;2022-07-23T00:13:02;29.90;99.90
33414;DHT22;60055;41.884;12.534;2022-07-23T00:15:28;29.90;99.90
33414;DHT22;60055;41.884;12.534;2022-07-23T00:17:53;29.90;99.90
33414;DHT22;60055;41.884;12.534;2022-07-23T00:20:19;30.00;99.90
33414;DHT22;60055;41.884;12.534;2022-07-23T00:22:49;29.90;99.90
33414;DHT22;60055;41.884;12.534;2022-07-23T00:25:15;29.90;99.90
33414;DHT22;60055;41.884;12.534;2022-07-23T00:27:40;29.90;99.90
33414;DHT22;60055;41.884;12.534;2022-07-23T00:30:07;29.90;99.90
33414;DHT22;60055;41.884;12.534;2022-07-23T00:32:32;29.80;99.90
33414;DHT22;60055;41.884;12.534;2022-07-23T00:35:09;29.80;99.90
33414;DHT22;60055;41.884;12.534;2022-07-23T00:37:35;29.70;99.90
33414;DHT22;60055;41.884;12.534;2022-07-23T00:40:00;29.70;99.90
33414;DHT22;60055;41.884;12.534;2022-07-23T00:42:26;29.70;99.90
33414;DHT22;60055;41.884;12.534;2022-07-23T00:44:52;29.60;99.90
33414;DHT22;60055;41.884;12.534;2022-07-23T00:47:17;29.70;99.90
33414;DHT22;60055;41.884;12.534;2022-07-23T00:49:43;29.70;99.90
33414;DHT22;60055;41.884;12.534;2022-07-23T00:52:09;29.80;99.90
33414;DHT22;60055;41.884;12.534;2022-07-23T00:54:35;29.70;99.90
33414;DHT22;60055;41.884;12.534;2022-07-23T00:57:00;29.70;99.90
33414;DHT22;60055;41.884;12.534;2022-07-23T00:59:26;29.70;99.90
33414;DHT22;60055;41.884;12.534;2022-07-23T01:01:53;29.70;99.90
33414;DHT22;60055;41.884;12.534;2022-07-23T01:04:18;29.70;99.90
33414;DHT22;60055;41.884;12.534;2022-07-23T01:06:44;29.70;99.90
33414;DHT22;60055;41.884;12.534;2022-07-23T01:09:10;29.70;99.90
33414;DHT22;60055;41.884;12.534;2022-07-23T01:11:37;29.70;99.90
33414;DHT22;60055;41.884;12.534;2022-07-23T01:14:10;29.60;99.90
33414;DHT22;60055;41.884;12.534;2022-07-23T01:16:35;29.60;99.90
33414;DHT22;60055;41.884;12.534;2022-07-23T01:19:01;29.60;99.90
33414;DHT22;60055;41.884;12.534;2022-07-23T01:21:29;29.60;99.90
33414;DHT22;60055;41.884;12.534;2022-07-23T01:23:55;29.50;99.90
33414;DHT22;60055;41.884;12.534;2022-07-23T01:26:21;29.50;99.90
33414;DHT22;60055;41.884;12.534;2022-07-23T01:28:47;29.50;99.90
33414;DHT22;60055;41.884;12.534;2022-07-23T01:31:12;29.50;99.90
33414;DHT22;60055;41.884;12.534;2022-07-23T01:33:38;29.40;99.90
33414;DHT22;60055;41.884;12.534;2022-07-23T01:36:04;29.50;99.90
33414;DHT22;60055;41.884;12.534;2022-07-23T01:38:29;29.50;99.90
33414;DHT22;60055;41.884;12.534;2022-07-23T01:40:55;29.50;99.90
33414;DHT22;60055;41.884;12.534;2022-07-23T01:43:21;29.50;99.90
33414;DHT22;60055;41.884;12.534;2022-07-23T01:45:46;29.50;99.90
33414;DHT22;60055;41.884;12.534;2022-07-23T01:48:12;29.50;99.90
33414;DHT22;60055;41.884;12.534;2022-07-23T01:50:38;29.50;99.90
33414;DHT22;60055;41.884;12.534;2022-07-23T01:53:04;29.40;99.90
33414;DHT22;60055;41.884;12.534;2022-07-23T01:55:29;29.40;99.90
33414;DHT22;60055;41.884;12.534;2022-07-23T01:57:55;29.40;99.90
33414;DHT22;60055;41.884;12.534;2022-07-23T02:00:20;29.40;99.90
33414;DHT22;60055;41.884;12.534;2022-07-23T02:02:46;29.30;99.90
33414;DHT22;60055;41.884;12.534;2022-07-23T02:05:12;29.30;99.90
33414;DHT22;60055;41.884;12.534;2022-07-23T02:07:37;29.30;99.90
33414;DHT22;60055;41.884;12.534;2022-07-23T02:10:03;29.20;99.90
33414;DHT22;60055;41.884;12.534;2022-07-23T02:12:29;29.20;99.90
33414;DHT22;60055;41.884;12.534;2022-07-23T02:14:55;29.20;99.90
33414;DHT22;60055;41.884;12.534;2022-07-23T02:17:20;29.20;99.90
33414;DHT22;60055;41.884;12.534;2022-07-23T02:19:46;29.10;99.90
33414;DHT22;60055;41.884;12.534;2022-07-23T02:22:11;29.20;99.90
33414;DHT22;60055;41.884;12.534;2022-07-23T02:24:37;29.10;99.90
33414;DHT22;60055;41.884;12.534;2022-07-23T02:27:03;29.10;99.90
33414;DHT22;60055;41.884;12.534;2022-07-23T02:29:28;29.00;99.90
33414;DHT22;60055;41.884;12.534;2022-07-23T02:31:54;29.00;99.90
33414;DHT22;60055;41.884;12.534;2022-07-23T02:34:20;29.00;99.90
33414;DHT22;60055;41.884;12.534;2022-07-23T02:36:45;29.00;99.90
33414;DHT22;60055;41.884;12.534;2022-07-23T02:39:11;29.10;99.90
33414;DHT22;60055;41.884;12.534;2022-07-23T02:41:36;29.00;99.90
33414;DHT22;60055;41.884;12.534;2022-07-23T02:44:02;29.10;99.90
33414;DHT22;60055;41.884;12.534;2022-07-23T02:46:28;29.10;99.90
33414;DHT22;60055;41.884;12.534;2022-07-23T02:48:54;29.00;99.90
33414;DHT22;60055;41.884;12.534;2022-07-23T02:51:19;29.00;99.90
33414;DHT22;60055;41.884;12.534;2022-07-23T02:53:45;29.00;99.90
33414;DHT22;60055;41.884;12.534;2022-07-23T02:56:11;29.00;99.90
33414;DHT22;60055;41.884;12.534;2022-07-23T02:58:36;29.00;99.90
33414;DHT22;60055;41.884;12.534;2022-07-23T03:01:02;29.00;99.90
33414;DHT22;60055;41.884;12.534;2022-07-23T03:03:28;28.90;99.90
33414;DHT22;60055;41.884;12.534;2022-07-23T03:05:54;28.80;98.80
33414;DHT22;60055;41.884;12.534;2022-07-23T03:08:20;28.50;97.70
33414;DHT22;60055;41.884;12.534;2022-07-23T03:10:45;28.40;97.00
33414;DHT22;60055;41.884;12.534;2022-07-23T03:13:11;28.20;98.10
33414;DHT22;60055;41.884;12.534;2022-07-23T03:15:36;28.20;97.30
33414;DHT22;60055;41.884;12.534;2022-07-23T03:18:02;28.20;96.80
33414;DHT22;60055;41.884;12.534;2022-07-23T03:20:28;28.20;97.30
33414;DHT22;60055;41.884;12.534;2022-07-23T03:22:53;28.20;96.40
33414;DHT22;60055;41.884;12.534;2022-07-23T03:25:19;28.30;96.50
33414;DHT22;60055;41.884;12.534;2022-07-23T03:27:45;28.20;97.10
33414;DHT22;60055;41.884;12.534;2022-07-23T03:30:11;28.20;99.90
33414;DHT22;60055;41.884;12.534;2022-07-23T03:32:37;28.20;95.80
33414;DHT22;60055;41.884;12.534;2022-07-23T03:35:03;28.10;96.10
33414;DHT22;60055;41.884;12.534;2022-07-23T03:37:29;28.10;96.80
33414;DHT22;60055;41.884;12.534;2022-07-23T03:39:54;28.10;96.20
33414;DHT22;60055;41.884;12.534;2022-07-23T03:42:20;28.20;95.50
33414;DHT22;60055;41.884;12.534;2022-07-23T03:44:46;28.30;95.90
33414;DHT22;60055;41.884;12.534;2022-07-23T03:47:11;28.20;96.10
33414;DHT22;60055;41.884;12.534;2022-07-23T03:49:37;28.30;95.70
33414;DHT22;60055;41.884;12.534;2022-07-23T03:52:03;28.10;95.90
33414;DHT22;60055;41.884;12.534;2022-07-23T03:54:29;28.00;96.10
33414;DHT22;60055;41.884;12.534;2022-07-23T03:56:54;28.10;95.90
33414;DHT22;60055;41.884;12.534;2022-07-23T03:59:20;28.00;95.30
33414;DHT22;60055;41.884;12.534;2022-07-23T04:01:46;27.80;95.40
33414;DHT22;60055;41.884;12.534;2022-07-23T04:04:12;27.90;95.20
33414;DHT22;60055;41.884;12.534;2022-07-23T04:06:37;27.90;95.00
33414;DHT22;60055;41.884;12.534;2022-07-23T04:09:03;27.80;94.90
33414;DHT22;60055;41.884;12.534;2022-07-23T04:11:29;27.90;94.60
33414;DHT22;60055;41.884;12.534;2022-07-23T04:13:55;27.90;94.40
33414;DHT22;60055;41.884;12.534;2022-07-23T04:16:21;27.90;94.20
33414;DHT22;60055;41.884;12.534;2022-07-23T04:18:46;27.90;94.30
33414;DHT22;60055;41.884;12.534;2022-07-23T04:21:12;27.80;94.20
33414;DHT22;60055;41.884;12.534;2022-07-23T04:23:38;27.80;94.00
33414;DHT22;60055;41.884;12.534;2022-07-23T04:26:03;27.80;93.80
33414;DHT22;60055;41.884;12.534;2022-07-23T04:28:29;27.70;93.60
33414;DHT22;60055;41.884;12.534;2022-07-23T04:30:58;27.70;93.50
33414;DHT22;60055;41.884;12.534;2022-07-23T04:33:24;27.70;93.30
33414;DHT22;60055;41.884;12.534;2022-07-23T04:35:52;27.70;93.00
33414;DHT22;60055;41.884;12.534;2022-07-23T04:38:18;27.60;93.00
33414;DHT22;60055;41.884;12.534;2022-07-23T04:40:43;27.80;92.50
33414;DHT22;60055;41.884;12.534;2022-07-23T04:43:09;27.90;92.30
33414;DHT22;60055;41.884;12.534;2022-07-23T04:45:35;27.80;92.30
33414;DHT22;60055;41.884;12.534;2022-07-23T04:48:00;27.70;92.30
33414;DHT22;60055;41.884;12.534;2022-07-23T04:50:26;27.60;92.30
33414;DHT22;60055;41.884;12.534;2022-07-23T04:52:52;27.70;91.90
33414;DHT22;60055;41.884;12.534;2022-07-23T04:55:18;27.70;91.50
33414;DHT22;60055;41.884;12.534;2022-07-23T04:57:43;27.80;91.30
33414;DHT22;60055;41.884;12.534;2022-07-23T05:00:09;27.80;91.20
33414;DHT22;60055;41.884;12.534;2022-07-23T05:02:35;28.00;91.00
33414;DHT22;60055;41.884;12.534;2022-07-23T05:05:01;28.20;90.60
33414;DHT22;60055;41.884;12.534;2022-07-23T05:07:26;28.30;90.30
33414;DHT22;60055;41.884;12.534;2022-07-23T05:09:52;28.40;90.10
33414;DHT22;60055;41.884;12.534;2022-07-23T05:12:17;28.60;90.10
33414;DHT22;60055;41.884;12.534;2022-07-23T05:14:43;28.60;89.60
33414;DHT22;60055;41.884;12.534;2022-07-23T05:17:09;28.90;89.20
33414;DHT22;60055;41.884;12.534;2022-07-23T05:19:35;29.10;88.70
33414;DHT22;60055;41.884;12.534;2022-07-23T05:22:01;28.60;88.70
33414;DHT22;60055;41.884;12.534;2022-07-23T05:24:26;28.60;89.00
33414;DHT22;60055;41.884;12.534;2022-07-23T05:26:52;28.70;89.30
33414;DHT22;60055;41.884;12.534;2022-07-23T05:29:18;29.00;88.10
33414;DHT22;60055;41.884;12.534;2022-07-23T05:31:43;29.30;86.90
33414;DHT22;60055;41.884;12.534;2022-07-23T05:34:09;29.60;86.40
33414;DHT22;60055;41.884;12.534;2022-07-23T05:36:35;29.70;85.70
33414;DHT22;60055;41.884;12.534;2022-07-23T05:39:01;29.80;85.20
33414;DHT22;60055;41.884;12.534;2022-07-23T05:41:26;30.00;85.10
33414;DHT22;60055;41.884;12.534;2022-07-23T05:43:52;30.10;84.70
33414;DHT22;60055;41.884;12.534;2022-07-23T05:46:18;30.20;85.80
33414;DHT22;60055;41.884;12.534;2022-07-23T05:48:43;30.30;87.50
33414;DHT22;60055;41.884;12.534;2022-07-23T05:51:11;30.20;90.90
33414;DHT22;60055;41.884;12.534;2022-07-23T05:53:37;30.10;94.50
33414;DHT22;60055;41.884;12.534;2022-07-23T05:56:04;30.00;95.10
33414;DHT22;60055;41.884;12.534;2022-07-23T05:58:29;30.20;94.90
33414;DHT22;60055;41.884;12.534;2022-07-23T06:00:56;30.40;94.30
33414;DHT22;60055;41.884;12.534;2022-07-23T06:03:22;30.40;94.40
33414;DHT22;60055;41.884;12.534;2022-07-23T06:05:47;30.50;94.30
33414;DHT22;60055;41.884;12.534;2022-07-23T06:08:13;30.70;94.30
33414;DHT22;60055;41.884;12.534;2022-07-23T06:10:39;30.40;94.80
33414;DHT22;60055;41.884;12.534;2022-07-23T06:13:04;30.60;94.60
33414;DHT22;60055;41.884;12.534;2022-07-23T06:15:30;30.60;94.80
33414;DHT22;60055;41.884;12.534;2022-07-23T06:17:56;30.60;95.40
33414;DHT22;60055;41.884;12.534;2022-07-23T06:20:21;30.90;94.80
33414;DHT22;60055;41.884;12.534;2022-07-23T06:22:47;31.40;94.30
33414;DHT22;60055;41.884;12.534;2022-07-23T06:25:12;31.50;94.10
33414;DHT22;60055;41.884;12.534;2022-07-23T06:27:38;31.70;93.80
33414;DHT22;60055;41.884;12.534;2022-07-23T06:30:04;31.80;93.40
33414;DHT22;60055;41.884;12.534;2022-07-23T06:32:31;31.70;93.40
33414;DHT22;60055;41.884;12.534;2022-07-23T06:34:57;31.80;93.60
33414;DHT22;60055;41.884;12.534;2022-07-23T06:37:22;32.10;92.90
33414;DHT22;60055;41.884;12.534;2022-07-23T06:39:48;32.10;92.30
33414;DHT22;60055;41.884;12.534;2022-07-23T06:42:13;31.90;92.30
33414;DHT22;60055;41.884;12.534;2022-07-23T06:44:40;32.20;92.20
33414;DHT22;60055;41.884;12.534;2022-07-23T06:47:06;32.40;91.90
33414;DHT22;60055;41.884;12.534;2022-07-23T06:49:31;32.20;91.80
33414;DHT22;60055;41.884;12.534;2022-07-23T06:51:57;32.30;91.80
33414;DHT22;60055;41.884;12.534;2022-07-23T06:54:23;32.40;91.70
33414;DHT22;60055;41.884;12.534;2022-07-23T06:56:49;32.00;91.80
33414;DHT22;60055;41.884;12.534;2022-07-23T06:59:14;32.10;91.60
33414;DHT22;60055;41.884;12.534;2022-07-23T07:01:40;32.70;91.10
33414;DHT22;60055;41.884;12.534;2022-07-23T07:04:05;33.10;90.50
33414;DHT22;60055;41.884;12.534;2022-07-23T07:06:31;33.20;90.40
33414;DHT22;60055;41.884;12.534;2022-07-23T07:08:57;33.00;90.00
33414;DHT22;60055;41.884;12.534;2022-07-23T07:11:22;33.50;89.50
33414;DHT22;60055;41.884;12.534;2022-07-23T07:13:49;34.20;87.00
33414;DHT22;60055;41.884;12.534;2022-07-23T07:16:15;34.50;84.60
33414;DHT22;60055;41.884;12.534;2022-07-23T07:18:41;34.70;84.40
33414;DHT22;60055;41.884;12.534;2022-07-23T07:21:06;34.80;83.20
33414;DHT22;60055;41.884;12.534;2022-07-23T07:23:32;35.00;81.70
33414;DHT22;60055;41.884;12.534;2022-07-23T07:25:58;35.00;80.10
33414;DHT22;60055;41.884;12.534;2022-07-23T07:28:23;34.90;79.60
33414;DHT22;60055;41.884;12.534;2022-07-23T07:30:49;34.90;78.90
33414;DHT22;60055;41.884;12.534;2022-07-23T07:33:15;34.20;79.70
33414;DHT22;60055;41.884;12.534;2022-07-23T07:35:40;33.90;81.30
33414;DHT22;60055;41.884;12.534;2022-07-23T07:38:06;34.10;79.40
33414;DHT22;60055;41.884;12.534;2022-07-23T07:40:32;33.80;78.50
33414;DHT22;60055;41.884;12.534;2022-07-23T07:42:57;33.90;78.90
33414;DHT22;60055;41.884;12.534;2022-07-23T07:45:24;34.90;75.20
33414;DHT22;60055;41.884;12.534;2022-07-23T07:47:51;35.00;74.10
33414;DHT22;60055;41.884;12.534;2022-07-23T07:50:18;35.40;72.50
33414;DHT22;60055;41.884;12.534;2022-07-23T07:52:44;35.60;72.00
33414;DHT22;60055;41.884;12.534;2022-07-23T07:55:10;35.90;70.40
33414;DHT22;60055;41.884;12.534;2022-07-23T07:57:36;35.60;69.50
33414;DHT22;60055;41.884;12.534;2022-07-23T08:00:04;35.30;70.00
33414;DHT22;60055;41.884;12.534;2022-07-23T08:02:49;35.20;69.70
33414;DHT22;60055;41.884;12.534;2022-07-23T08:05:22;35.60;69.30
33414;DHT22;60055;41.884;12.534;2022-07-23T08:07:48;35.30;68.90
33414;DHT22;60055;41.884;12.534;2022-07-23T08:10:14;35.40;68.70
33414;DHT22;60055;41.884;12.534;2022-07-23T08:12:48;35.10;68.60
33414;DHT22;60055;41.884;12.534;2022-07-23T08:15:16;34.90;67.60
33414;DHT22;60055;41.884;12.534;2022-07-23T08:17:43;34.20;66.90
33414;DHT22;60055;41.884;12.534;2022-07-23T08:20:10;34.10;66.30
33414;DHT22;60055;41.884;12.534;2022-07-23T08:25:24;35.40;64.90
33414;DHT22;60055;41.884;12.534;2022-07-23T08:27:50;36.00;64.00
33414;DHT22;60055;41.884;12.534;2022-07-23T08:30:17;36.30;62.30
33414;DHT22;60055;41.884;12.534;2022-07-23T08:32:50;35.60;63.90
33414;DHT22;60055;41.884;12.534;2022-07-23T08:35:18;34.40;65.60
33414;DHT22;60055;41.884;12.534;2022-07-23T08:37:44;34.30;66.30
33414;DHT22;60055;41.884;12.534;2022-07-23T08:40:10;34.50;64.80
33414;DHT22;60055;41.884;12.534;2022-07-23T08:42:36;34.80;65.10
33414;DHT22;60055;41.884;12.534;2022-07-23T08:45:03;35.30;64.40
33414;DHT22;60055;41.884;12.534;2022-07-23T08:47:29;35.00;63.90
33414;DHT22;60055;41.884;12.534;2022-07-23T08:49:56;35.00;64.00
33414;DHT22;60055;41.884;12.534;2022-07-23T08:52:24;35.50;63.30
33414;DHT22;60055;41.884;12.534;2022-07-23T08:54:50;35.80;64.30
33414;DHT22;60055;41.884;12.534;2022-07-23T08:57:16;35.70;64.20
33414;DHT22;60055;41.884;12.534;2022-07-23T08:59:42;34.60;66.00
33414;DHT22;60055;41.884;12.534;2022-07-23T09:02:08;34.20;67.10
33414;DHT22;60055;41.884;12.534;2022-07-23T09:04:34;34.60;66.30
33414;DHT22;60055;41.884;12.534;2022-07-23T09:07:01;34.40;66.30
33414;DHT22;60055;41.884;12.534;2022-07-23T09:09:27;34.30;66.90
33414;DHT22;60055;41.884;12.534;2022-07-23T09:12:03;34.40;66.80
33414;DHT22;60055;41.884;12.534;2022-07-23T09:14:43;35.00;65.30
33414;DHT22;60055;41.884;12.534;2022-07-23T09:17:16;35.30;65.40
33414;DHT22;60055;41.884;12.534;2022-07-23T09:19:43;35.70;65.30
33414;DHT22;60055;41.884;12.534;2022-07-23T09:22:26;36.20;64.30
33414;DHT22;60055;41.884;12.534;2022-07-23T09:25:15;36.20;64.00
33414;DHT22;60055;41.884;12.534;2022-07-23T09:30:31;35.10;65.10
33414;DHT22;60055;41.884;12.534;2022-07-23T09:35:50;35.30;64.40
33414;DHT22;60055;41.884;12.534;2022-07-23T09:38:18;35.00;63.60
33414;DHT22;60055;41.884;12.534;2022-07-23T09:40:45;35.20;63.30
33414;DHT22;60055;41.884;12.534;2022-07-23T09:43:12;35.40;63.40
33414;DHT22;60055;41.884;12.534;2022-07-23T09:45:38;35.90;63.10
33414;DHT22;60055;41.884;12.534;2022-07-23T09:48:14;36.00;62.00
33414;DHT22;60055;41.884;12.534;2022-07-23T09:50:44;35.90;62.40
33414;DHT22;60055;41.884;12.534;2022-07-23T09:53:24;35.70;62.60
33414;DHT22;60055;41.884;12.534;2022-07-23T09:55:51;35.60;62.50
33414;DHT22;60055;41.884;12.534;2022-07-23T09:58:21;35.70;62.80
33414;DHT22;60055;41.884;12.534;2022-07-23T10:00:48;35.90;62.50
33414;DHT22;60055;41.884;12.534;2022-07-23T10:03:15;36.10;62.50
33414;DHT22;60055;41.884;12.534;2022-07-23T10:05:43;36.10;62.00
33414;DHT22;60055;41.884;12.534;2022-07-23T10:08:11;35.90;62.10
33414;DHT22;60055;41.884;12.534;2022-07-23T10:10:39;35.60;63.20
33414;DHT22;60055;41.884;12.534;2022-07-23T10:13:05;35.70;63.10
33414;DHT22;60055;41.884;12.534;2022-07-23T10:15:51;36.00;63.20
33414;DHT22;60055;41.884;12.534;2022-07-23T10:18:17;35.90;62.50
33414;DHT22;60055;41.884;12.534;2022-07-23T10:20:43;35.60;62.40
33414;DHT22;60055;41.884;12.534;2022-07-23T10:39:22;35.90;68.60
33414;DHT22;60055;41.884;12.534;2022-07-23T10:41:49;35.80;68.70
33414;DHT22;60055;41.884;12.534;2022-07-23T10:44:20;36.10;68.10
33414;DHT22;60055;41.884;12.534;2022-07-23T10:47:02;35.50;65.80
33414;DHT22;60055;41.884;12.534;2022-07-23T10:49:29;35.20;66.80
33414;DHT22;60055;41.884;12.534;2022-07-23T10:54:48;35.80;66.10
33414;DHT22;60055;41.884;12.534;2022-07-23T10:57:15;35.70;66.10
33414;DHT22;60055;41.884;12.534;2022-07-23T11:02:29;35.70;65.20
33414;DHT22;60055;41.884;12.534;2022-07-23T11:05:00;35.60;63.80
33414;DHT22;60055;41.884;12.534;2022-07-23T11:07:26;35.70;62.30
33414;DHT22;60055;41.884;12.534;2022-07-23T11:09:52;35.40;63.00
33414;DHT22;60055;41.884;12.534;2022-07-23T11:17:35;35.40;62.00
33414;DHT22;60055;41.884;12.534;2022-07-23T11:22:55;35.30;61.30
33414;DHT22;60055;41.884;12.534;2022-07-23T11:27:48;35.60;60.20
33414;DHT22;60055;41.884;12.534;2022-07-23T11:32:53;35.90;60.80
33414;DHT22;60055;41.884;12.534;2022-07-23T11:35:28;35.80;59.70
33414;DHT22;60055;41.884;12.534;2022-07-23T11:38:13;35.70;57.50
33414;DHT22;60055;41.884;12.534;2022-07-23T11:40:40;35.90;57.70
33414;DHT22;60055;41.884;12.534;2022-07-23T11:43:08;36.00;58.80
33414;DHT22;60055;41.884;12.534;2022-07-23T11:45:37;36.10;58.80
33414;DHT22;60055;41.884;12.534;2022-07-23T11:48:05;36.20;57.90
33414;DHT22;60055;41.884;12.534;2022-07-23T11:50:31;36.10;58.60
33414;DHT22;60055;41.884;12.534;2022-07-23T11:52:57;35.90;59.60
33414;DHT22;60055;41.884;12.534;2022-07-23T11:55:22;36.10;60.10
33414;DHT22;60055;41.884;12.534;2022-07-23T11:57:50;36.10;59.20
33414;DHT22;60055;41.884;12.534;2022-07-23T12:00:26;36.10;58.30
33414;DHT22;60055;41.884;12.534;2022-07-23T12:02:55;36.00;57.70
33414;DHT22;60055;41.884;12.534;2022-07-23T12:05:24;36.10;57.80
33414;DHT22;60055;41.884;12.534;2022-07-23T12:07:52;36.10;58.20
33414;DHT22;60055;41.884;12.534;2022-07-23T12:10:24;36.20;58.00
33414;DHT22;60055;41.884;12.534;2022-07-23T12:12:55;36.00;57.70
33414;DHT22;60055;41.884;12.534;2022-07-23T12:17:51;35.90;57.00
33414;DHT22;60055;41.884;12.534;2022-07-23T12:20:26;35.60;56.30
33414;DHT22;60055;41.884;12.534;2022-07-23T12:22:56;35.90;57.40
33414;DHT22;60055;41.884;12.534;2022-07-23T12:25:24;35.90;56.60
33414;DHT22;60055;41.884;12.534;2022-07-23T12:30:28;35.80;58.00
33414;DHT22;60055;41.884;12.534;2022-07-23T12:32:56;36.10;58.30
33414;DHT22;60055;41.884;12.534;2022-07-23T12:35:22;36.10;58.30
33414;DHT22;60055;41.884;12.534;2022-07-23T12:37:50;36.30;57.60
33414;DHT22;60055;41.884;12.534;2022-07-23T12:40:34;36.20;57.40
33414;DHT22;60055;41.884;12.534;2022-07-23T12:43:03;36.40;57.60
33414;DHT22;60055;41.884;12.534;2022-07-23T12:45:45;36.20;57.90
33414;DHT22;60055;41.884;12.534;2022-07-23T12:48:21;36.40;57.30
33414;DHT22;60055;41.884;12.534;2022-07-23T12:53:27;36.50;56.20
33414;DHT22;60055;41.884;12.534;2022-07-23T12:56:09;36.50;55.10
33414;DHT22;60055;41.884;12.534;2022-07-23T12:58:45;36.60;55.10
33414;DHT22;60055;41.884;12.534;2022-07-23T13:06:24;36.80;55.10
33414;DHT22;60055;41.884;12.534;2022-07-23T13:08:49;36.60;55.20
33414;DHT22;60055;41.884;12.534;2022-07-23T13:11:18;36.50;55.50
33414;DHT22;60055;41.884;12.534;2022-07-23T13:13:43;36.20;56.70
33414;DHT22;60055;41.884;12.534;2022-07-23T13:16:09;36.40;56.10
33414;DHT22;60055;41.884;12.534;2022-07-23T13:18:35;36.60;56.20
33414;DHT22;60055;41.884;12.534;2022-07-23T13:21:00;36.70;55.80
33414;DHT22;60055;41.884;12.534;2022-07-23T13:23:27;36.70;55.10
33414;DHT22;60055;41.884;12.534;2022-07-23T13:25:53;36.80;54.20
33414;DHT22;60055;41.884;12.534;2022-07-23T13:28:20;36.80;52.70
33414;DHT22;60055;41.884;12.534;2022-07-23T13:30:46;36.60;51.90
33414;DHT22;60055;41.884;12.534;2022-07-23T13:33:18;36.70;51.70
33414;DHT22;60055;41.884;12.534;2022-07-23T13:35:44;36.50;50.70
33414;DHT22;60055;41.884;12.534;2022-07-23T13:38:10;36.50;52.00
33414;DHT22;60055;41.884;12.534;2022-07-23T13:40:38;36.70;51.50
33414;DHT22;60055;41.884;12.534;2022-07-23T13:43:09;36.70;51.20
33414;DHT22;60055;41.884;12.534;2022-07-23T13:45:35;36.70;51.20
33414;DHT22;60055;41.884;12.534;2022-07-23T13:48:04;36.70;50.50
33414;DHT22;60055;41.884;12.534;2022-07-23T13:50:30;36.80;51.00
33414;DHT22;60055;41.884;12.534;2022-07-23T13:52:56;36.90;51.20
33414;DHT22;60055;41.884;12.534;2022-07-23T13:55:22;37.00;50.10
33414;DHT22;60055;41.884;12.534;2022-07-23T13:57:47;36.90;50.80
33414;DHT22;60055;41.884;12.534;2022-07-23T14:00:13;36.70;50.90
33414;DHT22;60055;41.884;12.534;2022-07-23T14:02:40;36.50;51.10
33414;DHT22;60055;41.884;12.534;2022-07-23T14:05:08;36.80;51.70
33414;DHT22;60055;41.884;12.534;2022-07-23T14:07:35;36.80;50.60
33414;DHT22;60055;41.884;12.534;2022-07-23T14:10:02;36.80;50.60
33414;DHT22;60055;41.884;12.534;2022-07-23T14:12:28;37.00;50.40
33414;DHT22;60055;41.884;12.534;2022-07-23T14:14:54;36.40;50.20
33414;DHT22;60055;41.884;12.534;2022-07-23T14:17:20;36.00;50.70
33414;DHT22;60055;41.884;12.534;2022-07-23T14:19:46;35.70;51.30
33414;DHT22;60055;41.884;12.534;2022-07-23T14:22:11;35.80;51.90
33414;DHT22;60055;41.884;12.534;2022-07-23T14:24:37;35.70;52.00
33414;DHT22;60055;41.884;12.534;2022-07-23T14:27:03;35.50;52.10
33414;DHT22;60055;41.884;12.534;2022-07-23T14:29:29;35.50;52.10
33414;DHT22;60055;41.884;12.534;2022-07-23T14:31:56;35.50;53.20
33414;DHT22;60055;41.884;12.534;2022-07-23T14:34:22;35.50;52.90
33414;DHT22;60055;41.884;12.534;2022-07-23T14:36:48;35.80;52.60
33414;DHT22;60055;41.884;12.534;2022-07-23T14:39:14;36.10;52.40
33414;DHT22;60055;41.884;12.534;2022-07-23T14:41:40;36.30;52.20
33414;DHT22;60055;41.884;12.534;2022-07-23T14:44:06;36.40;52.40
33414;DHT22;60055;41.884;12.534;2022-07-23T14:46:31;36.10;50.80
33414;DHT22;60055;41.884;12.534;2022-07-23T14:48:57;35.90;50.60
33414;DHT22;60055;41.884;12.534;2022-07-23T14:51:23;35.90;50.20
33414;DHT22;60055;41.884;12.534;2022-07-23T14:53:48;35.70;51.20
33414;DHT22;60055;41.884;12.534;2022-07-23T14:56:14;35.70;51.30
33414;DHT22;60055;41.884;12.534;2022-07-23T14:58:40;35.60;51.00
33414;DHT22;60055;41.884;12.534;2022-07-23T15:01:06;35.90;51.40
33414;DHT22;60055;41.884;12.534;2022-07-23T15:03:32;35.50;51.00
33414;DHT22;60055;41.884;12.534;2022-07-23T15:05:59;35.50;51.80
33414;DHT22;60055;41.884;12.534;2022-07-23T15:08:25;35.50;52.60
33414;DHT22;60055;41.884;12.534;2022-07-23T15:10:50;35.60;52.90
33414;DHT22;60055;41.884;12.534;2022-07-23T15:13:16;35.70;52.90
33414;DHT22;60055;41.884;12.534;2022-07-23T15:15:42;35.80;52.50
33414;DHT22;60055;41.884;12.534;2022-07-23T15:18:08;35.80;53.20
33414;DHT22;60055;41.884;12.534;2022-07-23T15:20:33;35.70;53.80
33414;DHT22;60055;41.884;12.534;2022-07-23T15:22:59;35.70;54.10
33414;DHT22;60055;41.884;12.534;2022-07-23T15:25:25;35.50;53.10
33414;DHT22;60055;41.884;12.534;2022-07-23T15:27:50;35.60;53.60
33414;DHT22;60055;41.884;12.534;2022-07-23T15:30:16;35.10;53.80
33414;DHT22;60055;41.884;12.534;2022-07-23T15:32:42;35.20;53.10
33414;DHT22;60055;41.884;12.534;2022-07-23T15:35:07;35.20;53.00
33414;DHT22;60055;41.884;12.534;2022-07-23T15:37:36;35.00;54.80
33414;DHT22;60055;41.884;12.534;2022-07-23T15:40:02;34.90;56.20
33414;DHT22;60055;41.884;12.534;2022-07-23T15:42:31;34.70;57.60
33414;DHT22;60055;41.884;12.534;2022-07-23T15:44:57;34.80;57.60
33414;DHT22;60055;41.884;12.534;2022-07-23T15:47:23;34.60;57.50
33414;DHT22;60055;41.884;12.534;2022-07-23T15:49:49;34.70;58.30
33414;DHT22;60055;41.884;12.534;2022-07-23T15:52:14;34.40;58.70
33414;DHT22;60055;41.884;12.534;2022-07-23T15:54:40;34.50;58.80
33414;DHT22;60055;41.884;12.534;2022-07-23T15:57:07;34.30;58.30
33414;DHT22;60055;41.884;12.534;2022-07-23T15:59:33;34.40;55.00
33414;DHT22;60055;41.884;12.534;2022-07-23T16:01:59;34.30;56.60
33414;DHT22;60055;41.884;12.534;2022-07-23T16:04:25;34.20;57.70
33414;DHT22;60055;41.884;12.534;2022-07-23T16:06:51;34.20;59.20
33414;DHT22;60055;41.884;12.534;2022-07-23T16:09:16;34.30;58.50